createdAt,value
2018-04-27T00:00:44.984Z,0.00
2018-04-27T00:01:45.005Z,0.00
2018-04-27T00:02:45.024Z,0.00
2018-04-27T00:03:45.044Z,0.00
2018-04-27T00:04:45.063Z,0.00
2018-04-27T00:05:45.083Z,0.00
2018-04-27T00:06:45.104Z,0.00
2018-04-27T00:07:45.123Z,0.00
2018-04-27T00:08:45.143Z,0.00
2018-04-27T00:09:45.158Z,0.00
2018-04-27T00:10:45.179Z,0.00
2018-04-27T00:11:45.198Z,0.00
2018-04-27T00:12:45.222Z,0.00
2018-04-27T00:13:45.237Z,0.00
2018-04-27T00:14:45.262Z,0.00
2018-04-27T00:15:45.278Z,0.00
2018-04-27T00:16:45.297Z,0.00
2018-04-27T00:17:45.321Z,0.00
2018-04-27T00:18:45.338Z,0.00
2018-04-27T00:19:45.358Z,0.00
2018-04-27T00:20:45.377Z,0.00
2018-04-27T00:21:45.400Z,0.00
2018-04-27T00:22:45.414Z,0.00
2018-04-27T00:23:45.435Z,0.00
2018-04-27T00:24:45.461Z,0.00
2018-04-27T00:25:45.475Z,0.00
2018-04-27T00:26:45.496Z,0.00
2018-04-27T00:27:45.522Z,0.00
2018-04-27T00:28:45.531Z,0.00
2018-04-27T00:29:45.555Z,0.00
2018-04-27T00:30:45.573Z,0.00
2018-04-27T00:31:45.596Z,0.00
2018-04-27T00:32:45.615Z,0.00
2018-04-27T00:33:45.630Z,0.00
2018-04-27T00:34:45.649Z,0.00
2018-04-27T00:35:45.677Z,0.00
2018-04-27T00:36:45.689Z,0.00
2018-04-27T00:37:45.710Z,0.00
2018-04-27T00:38:45.732Z,0.00
2018-04-27T00:39:45.746Z,0.00
2018-04-27T00:40:45.772Z,0.00
2018-04-27T00:41:45.786Z,0.00
2018-04-27T00:42:45.806Z,0.00
2018-04-27T00:43:45.829Z,0.00
2018-04-27T00:44:45.846Z,0.00
2018-04-27T00:45:45.870Z,0.00
2018-04-27T00:46:45.889Z,0.00
2018-04-27T00:47:45.910Z,0.00
2018-04-27T00:48:45.931Z,0.00
2018-04-27T00:49:45.941Z,0.00
2018-04-27T00:50:45.970Z,0.00
2018-04-27T00:51:45.991Z,0.00
2018-04-27T00:52:46.008Z,0.00
2018-04-27T00:53:46.022Z,0.00
2018-04-27T00:54:46.048Z,0.00
2018-04-27T00:55:46.063Z,0.00
2018-04-27T00:56:46.081Z,0.00
2018-04-27T00:57:46.102Z,0.00
2018-04-27T00:58:46.122Z,0.00
2018-04-27T00:59:46.142Z,0.00
2018-04-27T01:00:46.157Z,0.00
2018-04-27T01:01:46.181Z,0.00
2018-04-27T01:02:46.197Z,0.00
2018-04-27T01:03:46.224Z,0.00
2018-04-27T01:04:46.235Z,0.00
2018-04-27T01:05:46.262Z,0.00
2018-04-27T01:06:46.281Z,0.00
2018-04-27T01:07:46.297Z,0.00
2018-04-27T01:08:46.319Z,0.00
2018-04-27T01:09:46.337Z,0.00
2018-04-27T01:10:46.356Z,0.00
2018-04-27T01:11:46.379Z,0.00
2018-04-27T01:12:46.397Z,0.00
2018-04-27T01:13:46.420Z,0.00
2018-04-27T01:14:46.436Z,0.00
2018-04-27T01:15:46.461Z,0.00
2018-04-27T01:16:46.480Z,0.00
2018-04-27T01:17:46.500Z,0.00
2018-04-27T01:18:46.522Z,0.00
2018-04-27T01:19:46.541Z,0.00
2018-04-27T01:20:46.551Z,0.00
2018-04-27T01:21:46.575Z,0.00
2018-04-27T01:22:46.600Z,0.00
2018-04-27T01:23:46.610Z,0.00
2018-04-27T01:24:46.631Z,0.00
2018-04-27T01:25:46.651Z,0.00
2018-04-27T01:26:46.670Z,0.00
2018-04-27T01:27:46.703Z,0.00
2018-04-27T01:28:46.710Z,0.00
2018-04-27T01:29:46.730Z,0.00
2018-04-27T01:30:46.749Z,0.00
2018-04-27T01:31:46.769Z,0.00
2018-04-27T01:32:46.789Z,0.00
2018-04-27T01:33:46.809Z,0.00
2018-04-27T01:34:46.830Z,0.00
2018-04-27T01:35:46.852Z,0.00
2018-04-27T01:36:46.873Z,0.00
2018-04-27T01:37:46.889Z,0.00
2018-04-27T01:38:46.914Z,0.00
2018-04-27T01:39:46.927Z,0.00
2018-04-27T01:40:46.953Z,0.00
2018-04-27T01:41:46.964Z,0.00
2018-04-27T01:42:46.991Z,0.00
2018-04-27T01:43:47.010Z,0.00
2018-04-27T01:44:47.023Z,0.00
2018-04-27T01:45:47.050Z,0.00
2018-04-27T01:46:47.074Z,0.00
2018-04-27T01:47:47.089Z,0.00
2018-04-27T01:48:47.108Z,0.00
2018-04-27T01:49:47.129Z,0.00
2018-04-27T01:50:47.145Z,0.00
2018-04-27T01:51:47.169Z,0.00
2018-04-27T01:52:47.189Z,0.00
2018-04-27T01:53:47.204Z,0.00
2018-04-27T01:54:47.234Z,0.00
2018-04-27T01:55:47.246Z,0.00
2018-04-27T01:56:47.267Z,0.00
2018-04-27T01:57:47.292Z,0.00
2018-04-27T01:58:47.306Z,0.00
2018-04-27T01:59:47.326Z,0.00
2018-04-27T02:00:47.349Z,0.00
2018-04-27T02:01:47.365Z,0.00
2018-04-27T02:02:47.392Z,0.00
2018-04-27T02:03:47.405Z,0.00
2018-04-27T02:04:47.424Z,0.00
2018-04-27T02:05:47.446Z,0.00
2018-04-27T02:06:47.475Z,0.00
2018-04-27T02:07:47.488Z,0.00
2018-04-27T02:08:47.507Z,0.00
2018-04-27T02:09:47.524Z,0.00
2018-04-27T02:10:47.554Z,0.00
2018-04-27T02:11:47.568Z,0.00
2018-04-27T02:12:47.590Z,0.00
2018-04-27T02:13:47.604Z,0.00
2018-04-27T02:14:47.623Z,0.00
2018-04-27T02:15:47.647Z,0.00
2018-04-27T02:16:47.665Z,0.00
2018-04-27T02:17:47.686Z,0.00
2018-04-27T02:18:47.706Z,0.00
2018-04-27T02:19:47.723Z,0.00
2018-04-27T02:20:47.742Z,0.00
2018-04-27T02:21:47.770Z,0.00
2018-04-27T02:22:47.783Z,0.00
2018-04-27T02:23:47.806Z,0.00
2018-04-27T02:24:47.827Z,0.00
2018-04-27T02:25:47.849Z,0.00
2018-04-27T02:26:47.863Z,0.00
2018-04-27T02:27:47.885Z,0.00
2018-04-27T02:28:47.905Z,0.00
2018-04-27T02:29:47.927Z,0.00
2018-04-27T02:30:47.946Z,0.00
2018-04-27T02:31:47.958Z,0.00
2018-04-27T02:32:47.980Z,0.00
2018-04-27T02:33:47.997Z,0.00
2018-04-27T02:34:48.022Z,0.00
2018-04-27T02:35:48.042Z,0.00
2018-04-27T02:36:48.057Z,0.00
2018-04-27T02:37:48.077Z,0.00
2018-04-27T02:38:48.101Z,0.00
2018-04-27T02:39:48.119Z,0.00
2018-04-27T02:40:48.132Z,0.00
2018-04-27T02:41:48.155Z,0.00
2018-04-27T02:42:48.177Z,0.00
2018-04-27T02:43:48.196Z,0.00
2018-04-27T02:44:48.212Z,0.00
2018-04-27T02:45:48.231Z,0.00
2018-04-27T02:46:48.270Z,0.00
2018-04-27T02:47:48.272Z,0.00
2018-04-27T02:48:48.291Z,0.00
2018-04-27T02:49:48.315Z,0.00
2018-04-27T02:50:48.334Z,0.00
2018-04-27T02:51:48.355Z,0.00
2018-04-27T02:52:48.373Z,0.00
2018-04-27T02:53:48.395Z,0.00
2018-04-27T02:54:48.409Z,0.00
2018-04-27T02:55:48.438Z,0.00
2018-04-27T02:56:48.449Z,0.00
2018-04-27T02:57:48.468Z,0.00
2018-04-27T02:58:48.492Z,0.00
2018-04-27T02:59:48.512Z,0.00
2018-04-27T03:00:48.526Z,0.00
2018-04-27T03:01:48.551Z,0.00
2018-04-27T03:02:48.565Z,0.00
2018-04-27T03:03:48.586Z,0.00
2018-04-27T03:04:48.612Z,0.00
2018-04-27T03:05:48.628Z,0.00
2018-04-27T03:06:48.652Z,0.00
2018-04-27T03:07:48.665Z,0.00
2018-04-27T03:08:48.686Z,0.00
2018-04-27T03:09:48.710Z,0.00
2018-04-27T03:10:48.725Z,4.00
2018-04-27T03:11:48.747Z,0.00
2018-04-27T03:12:48.769Z,4.00
2018-04-27T03:13:48.788Z,4.00
2018-04-27T03:14:48.801Z,4.00
2018-04-27T03:15:48.822Z,4.00
2018-04-27T03:16:48.913Z,0.00
2018-04-27T03:17:48.859Z,0.00
2018-04-27T03:18:48.883Z,0.00
2018-04-27T03:19:48.903Z,4.00
2018-04-27T03:20:48.923Z,4.00
2018-04-27T03:21:48.943Z,4.00
2018-04-27T03:22:48.957Z,4.00
2018-04-27T03:23:49.061Z,4.00
2018-04-27T03:24:48.998Z,8.00
2018-04-27T03:25:49.014Z,8.00
2018-04-27T03:26:49.036Z,4.00
2018-04-27T03:27:49.051Z,8.00
2018-04-27T03:28:49.074Z,8.00
2018-04-27T03:29:49.094Z,12.00
2018-04-27T03:30:49.121Z,12.00
2018-04-27T03:31:49.136Z,16.00
2018-04-27T03:32:49.150Z,16.00
2018-04-27T03:33:49.169Z,16.00
2018-04-27T03:34:49.190Z,20.00
2018-04-27T03:35:49.210Z,20.00
2018-04-27T03:36:49.231Z,24.00
2018-04-27T03:37:49.253Z,28.00
2018-04-27T03:38:49.273Z,32.00
2018-04-27T03:39:49.283Z,32.00
2018-04-27T03:40:49.307Z,40.00
2018-04-27T03:41:49.324Z,48.00
2018-04-27T03:42:49.353Z,56.00
2018-04-27T03:43:49.367Z,64.00
2018-04-27T03:44:49.386Z,76.00
2018-04-27T03:45:49.407Z,92.00
2018-04-27T03:46:49.426Z,104.00
2018-04-27T03:47:49.449Z,116.00
2018-04-27T03:48:49.459Z,136.00
2018-04-27T03:49:49.483Z,152.00
2018-04-27T03:50:49.502Z,172.00
2018-04-27T03:51:49.530Z,192.00
2018-04-27T03:52:49.542Z,212.00
2018-04-27T03:53:49.558Z,240.00
2018-04-27T03:54:49.583Z,264.00
2018-04-27T03:55:49.606Z,280.00
2018-04-27T03:56:49.616Z,308.00
2018-04-27T03:57:49.638Z,332.00
2018-04-27T03:58:49.658Z,352.00
2018-04-27T03:59:49.678Z,380.00
2018-04-27T04:00:49.699Z,404.00
2018-04-27T04:01:49.717Z,432.00
2018-04-27T04:02:49.737Z,460.00
2018-04-27T04:03:49.757Z,492.00
2018-04-27T04:04:49.776Z,520.00
2018-04-27T04:05:49.797Z,552.00
2018-04-27T04:06:49.816Z,588.00
2018-04-27T04:07:49.837Z,632.00
2018-04-27T04:08:49.856Z,668.00
2018-04-27T04:09:49.873Z,708.00
2018-04-27T04:10:49.900Z,756.00
2018-04-27T04:11:49.918Z,796.00
2018-04-27T04:12:49.936Z,832.00
2018-04-27T04:13:49.955Z,868.00
2018-04-27T04:14:49.979Z,904.00
2018-04-27T04:15:50.000Z,936.00
2018-04-27T04:16:50.017Z,964.00
2018-04-27T04:17:50.031Z,992.00
2018-04-27T04:18:50.051Z,1016.00
2018-04-27T04:19:50.075Z,1044.00
2018-04-27T04:20:50.088Z,1076.00
2018-04-27T04:21:50.108Z,1108.00
2018-04-27T04:22:50.131Z,1144.00
2018-04-27T04:23:50.155Z,1188.00
2018-04-27T04:24:50.176Z,1228.00
2018-04-27T04:25:50.185Z,1272.00
2018-04-27T04:26:50.279Z,1316.00
2018-04-27T04:27:50.228Z,1344.00
2018-04-27T04:28:50.249Z,1364.00
2018-04-27T04:29:50.270Z,1380.00
2018-04-27T04:30:50.287Z,1384.00
2018-04-27T04:31:50.305Z,1384.00
2018-04-27T04:32:50.324Z,1380.00
2018-04-27T04:33:50.348Z,1396.00
2018-04-27T04:34:50.369Z,1404.00
2018-04-27T04:35:50.384Z,1464.00
2018-04-27T04:36:50.405Z,1504.00
2018-04-27T04:37:50.488Z,1556.00
2018-04-27T04:38:50.442Z,1624.00
2018-04-27T04:39:50.465Z,1716.00
2018-04-27T04:40:50.480Z,1800.00
2018-04-27T04:41:50.504Z,1888.00
2018-04-27T04:42:50.528Z,1992.00
2018-04-27T04:43:50.545Z,2096.00
2018-04-27T04:44:50.560Z,2208.00
2018-04-27T04:45:50.579Z,2356.00
2018-04-27T04:46:50.602Z,2508.00
2018-04-27T04:47:50.620Z,2616.00
2018-04-27T04:48:50.640Z,2660.00
2018-04-27T04:49:50.662Z,2700.00
2018-04-27T04:50:50.682Z,2708.00
2018-04-27T04:51:50.714Z,2788.00
2018-04-27T04:52:50.717Z,2876.00
2018-04-27T04:53:50.747Z,2952.00
2018-04-27T04:54:50.759Z,2964.00
2018-04-27T04:55:50.779Z,2996.00
2018-04-27T04:56:50.802Z,3004.00
2018-04-27T04:57:50.815Z,3016.00
2018-04-27T04:58:50.838Z,3008.00
2018-04-27T04:59:50.860Z,2920.00
2018-04-27T05:00:50.878Z,2860.00
2018-04-27T05:01:50.900Z,2800.00
2018-04-27T05:02:50.974Z,2768.00
2018-04-27T05:03:50.938Z,2772.00
2018-04-27T05:04:50.959Z,2824.00
2018-04-27T05:05:50.981Z,2920.00
2018-04-27T05:06:51.001Z,3040.00
2018-04-27T05:07:51.018Z,3164.00
2018-04-27T05:08:51.039Z,3264.00
2018-04-27T05:09:51.062Z,3300.00
2018-04-27T05:10:51.148Z,3320.00
2018-04-27T05:11:51.098Z,3340.00
2018-04-27T05:12:51.118Z,3364.00
2018-04-27T05:13:51.142Z,3424.00
2018-04-27T05:14:51.156Z,3512.00
2018-04-27T05:15:51.178Z,3592.00
2018-04-27T05:16:51.199Z,3644.00
2018-04-27T05:17:51.219Z,3704.00
2018-04-27T05:18:51.238Z,3756.00
2018-04-27T05:19:51.262Z,3796.00
2018-04-27T05:20:51.282Z,3832.00
2018-04-27T05:21:51.299Z,3908.00
2018-04-27T05:22:51.322Z,3876.00
2018-04-27T05:23:51.337Z,3944.00
2018-04-27T05:24:51.358Z,4064.00
2018-04-27T05:25:51.377Z,4096.00
2018-04-27T05:26:51.403Z,4072.00
2018-04-27T05:27:51.426Z,4108.00
2018-04-27T05:28:51.439Z,4136.00
2018-04-27T05:29:51.463Z,4196.00
2018-04-27T05:30:51.484Z,4236.00
2018-04-27T05:31:51.496Z,4232.00
2018-04-27T05:32:51.517Z,4196.00
2018-04-27T05:33:51.537Z,4080.00
2018-04-27T05:34:51.557Z,4024.00
2018-04-27T05:35:51.580Z,3940.00
2018-04-27T05:36:51.646Z,3844.00
2018-04-27T05:37:51.620Z,3712.00
2018-04-27T05:38:51.637Z,3596.00
2018-04-27T05:39:51.669Z,3488.00
2018-04-27T05:40:51.676Z,3440.00
2018-04-27T05:41:51.700Z,3468.00
2018-04-27T05:42:51.725Z,3512.00
2018-04-27T05:43:51.744Z,3560.00
2018-04-27T05:44:51.757Z,3620.00
2018-04-27T05:45:51.779Z,3684.00
2018-04-27T05:46:51.807Z,3772.00
2018-04-27T05:47:51.822Z,3876.00
2018-04-27T05:48:51.840Z,3956.00
2018-04-27T05:49:51.861Z,4160.00
2018-04-27T05:50:51.880Z,4276.00
2018-04-27T05:51:51.901Z,4404.00
2018-04-27T05:52:51.918Z,4500.00
2018-04-27T05:53:51.940Z,4584.00
2018-04-27T05:54:51.965Z,4744.00
2018-04-27T05:55:51.980Z,4816.00
2018-04-27T05:56:52.004Z,4884.00
2018-04-27T05:57:52.020Z,4948.00
2018-04-27T05:58:52.042Z,4988.00
2018-04-27T05:59:52.059Z,5020.00
2018-04-27T06:00:52.080Z,5032.00
2018-04-27T06:01:52.101Z,5048.00
2018-04-27T06:02:52.125Z,5004.00
2018-04-27T06:03:52.142Z,4840.00
2018-04-27T06:04:52.161Z,4936.00
2018-04-27T06:05:52.188Z,5024.00
2018-04-27T06:06:52.200Z,5024.00
2018-04-27T06:07:52.226Z,5036.00
2018-04-27T06:08:52.245Z,5084.00
2018-04-27T06:09:52.264Z,5100.00
2018-04-27T06:10:52.288Z,5108.00
2018-04-27T06:11:52.311Z,5124.00
2018-04-27T06:12:52.325Z,5124.00
2018-04-27T06:13:52.345Z,5092.00
2018-04-27T06:14:52.379Z,5084.00
2018-04-27T06:15:52.390Z,5092.00
2018-04-27T06:16:52.412Z,5084.00
2018-04-27T06:17:52.436Z,5080.00
2018-04-27T06:18:52.448Z,5108.00
2018-04-27T06:19:52.472Z,5144.00
2018-04-27T06:20:52.494Z,5152.00
2018-04-27T06:21:52.509Z,5308.00
2018-04-27T06:22:52.541Z,5276.00
2018-04-27T06:23:52.550Z,5296.00
2018-04-27T06:24:52.568Z,5248.00
2018-04-27T06:25:52.589Z,5180.00
2018-04-27T06:26:52.615Z,5204.00
2018-04-27T06:27:52.636Z,5144.00
2018-04-27T06:28:52.654Z,5088.00
2018-04-27T06:29:52.674Z,5032.00
2018-04-27T06:30:52.700Z,5020.00
2018-04-27T06:31:52.742Z,4988.00
2018-04-27T06:32:52.738Z,4984.00
2018-04-27T06:33:52.753Z,4988.00
2018-04-27T06:34:52.778Z,4972.00
2018-04-27T06:35:52.798Z,4972.00
2018-04-27T06:36:52.813Z,4956.00
2018-04-27T06:37:52.839Z,4964.00
2018-04-27T06:38:52.857Z,4952.00
2018-04-27T06:39:52.878Z,4932.00
2018-04-27T06:40:52.899Z,4912.00
2018-04-27T06:41:52.918Z,4940.00
2018-04-27T06:42:52.945Z,4952.00
2018-04-27T06:43:52.958Z,4920.00
2018-04-27T06:44:52.987Z,4916.00
2018-04-27T06:45:53.008Z,4936.00
2018-04-27T06:46:53.027Z,4932.00
2018-04-27T06:47:53.042Z,4952.00
2018-04-27T06:48:53.062Z,4980.00
2018-04-27T06:49:53.086Z,4992.00
2018-04-27T06:50:53.114Z,4976.00
2018-04-27T06:51:53.131Z,5044.00
2018-04-27T06:52:53.147Z,5056.00
2018-04-27T06:53:53.169Z,5060.00
2018-04-27T06:54:53.192Z,5088.00
2018-04-27T06:55:53.207Z,5108.00
2018-04-27T06:56:53.232Z,5060.00
2018-04-27T06:57:53.248Z,5044.00
2018-04-27T06:58:53.273Z,4992.00
2018-04-27T06:59:53.299Z,5128.00
2018-04-27T07:00:53.312Z,5140.00
2018-04-27T07:01:53.338Z,5120.00
2018-04-27T07:02:53.357Z,5052.00
2018-04-27T07:03:53.377Z,5056.00
2018-04-27T07:04:53.398Z,5280.00
2018-04-27T07:05:53.416Z,5360.00
2018-04-27T07:06:53.445Z,5360.00
2018-04-27T07:07:53.463Z,5392.00
2018-04-27T07:08:53.482Z,5444.00
2018-04-27T07:09:53.502Z,5504.00
2018-04-27T07:10:53.528Z,5556.00
2018-04-27T07:11:53.548Z,5576.00
2018-04-27T07:12:53.567Z,5616.00
2018-04-27T07:13:53.589Z,5640.00
2018-04-27T07:14:53.607Z,5680.00
2018-04-27T07:15:53.636Z,5680.00
2018-04-27T07:16:53.712Z,5768.00
2018-04-27T07:17:53.680Z,5892.00
2018-04-27T07:18:53.701Z,5996.00
2018-04-27T07:19:53.720Z,6156.00
2018-04-27T07:20:53.740Z,6268.00
2018-04-27T07:21:53.756Z,6392.00
2018-04-27T07:22:53.777Z,6392.00
2018-04-27T07:23:53.802Z,6516.00
2018-04-27T07:24:53.821Z,6488.00
2018-04-27T07:25:53.904Z,6500.00
2018-04-27T07:26:53.867Z,6424.00
2018-04-27T07:27:53.887Z,6428.00
2018-04-27T07:28:53.907Z,6244.00
2018-04-27T07:29:53.929Z,5864.00
2018-04-27T07:30:53.953Z,5784.00
2018-04-27T07:31:53.971Z,5780.00
2018-04-27T07:32:53.997Z,5764.00
2018-04-27T07:33:54.016Z,5776.00
2018-04-27T07:34:54.037Z,5852.00
2018-04-27T07:35:54.059Z,5928.00
2018-04-27T07:36:54.091Z,5936.00
2018-04-27T07:37:54.103Z,5904.00
2018-04-27T07:38:54.121Z,5784.00
2018-04-27T07:39:54.146Z,5716.00
2018-04-27T07:40:54.166Z,5632.00
2018-04-27T07:41:54.193Z,5592.00
2018-04-27T07:42:54.205Z,5632.00
2018-04-27T07:43:54.231Z,5628.00
2018-04-27T07:44:54.250Z,5628.00
2018-04-27T07:45:54.279Z,5648.00
2018-04-27T07:46:54.299Z,5684.00
2018-04-27T07:47:54.317Z,5748.00
2018-04-27T07:48:54.337Z,5772.00
2018-04-27T07:49:54.362Z,5832.00
2018-04-27T07:50:54.383Z,5832.00
2018-04-27T07:51:54.402Z,5912.00
2018-04-27T07:52:54.429Z,5856.00
2018-04-27T07:53:54.445Z,5900.00
2018-04-27T07:54:54.466Z,5860.00
2018-04-27T07:55:54.487Z,5812.00
2018-04-27T07:56:54.517Z,5680.00
2018-04-27T07:57:54.532Z,5884.00
2018-04-27T07:58:54.559Z,5868.00
2018-04-27T07:59:54.581Z,5788.00
2018-04-27T08:00:54.606Z,5812.00
2018-04-27T08:01:54.623Z,5860.00
2018-04-27T08:02:54.639Z,5820.00
2018-04-27T08:03:54.664Z,5856.00
2018-04-27T08:04:54.684Z,5748.00
2018-04-27T08:05:54.708Z,5804.00
2018-04-27T08:06:54.736Z,5880.00
2018-04-27T08:07:54.749Z,5948.00
2018-04-27T08:08:54.823Z,5968.00
2018-04-27T08:09:54.804Z,6012.00
2018-04-27T08:10:54.814Z,6028.00
2018-04-27T08:11:54.841Z,6140.00
2018-04-27T08:12:54.862Z,6092.00
2018-04-27T08:13:54.892Z,6132.00
2018-04-27T08:14:54.908Z,6156.00
2018-04-27T08:15:54.924Z,6112.00
2018-04-27T08:16:54.942Z,6144.00
2018-04-27T08:17:54.972Z,6172.00
2018-04-27T08:18:54.988Z,5972.00
2018-04-27T08:19:55.018Z,5916.00
2018-04-27T08:20:55.033Z,5928.00
2018-04-27T08:21:55.056Z,5960.00
2018-04-27T08:22:55.080Z,5964.00
2018-04-27T08:23:55.106Z,6044.00
2018-04-27T08:24:55.123Z,6036.00
2018-04-27T08:25:55.148Z,6028.00
2018-04-27T08:26:55.162Z,6024.00
2018-04-27T08:27:55.188Z,6048.00
2018-04-27T08:28:55.211Z,6076.00
2018-04-27T08:29:55.249Z,6200.00
2018-04-27T08:30:55.253Z,6264.00
2018-04-27T08:31:55.277Z,6308.00
2018-04-27T08:32:55.302Z,6224.00
2018-04-27T08:33:55.326Z,6268.00
2018-04-27T08:34:55.347Z,6080.00
2018-04-27T08:35:55.378Z,6000.00
2018-04-27T08:36:55.386Z,6024.00
2018-04-27T08:37:55.493Z,6024.00
2018-04-27T08:38:55.431Z,6128.00
2018-04-27T08:39:55.452Z,6200.00
2018-04-27T08:40:55.476Z,6392.00
2018-04-27T08:41:55.501Z,6488.00
2018-04-27T08:42:55.526Z,6672.00
2018-04-27T08:43:55.542Z,6612.00
2018-04-27T08:44:55.567Z,6644.00
2018-04-27T08:45:55.595Z,6588.00
2018-04-27T08:46:55.620Z,6640.00
2018-04-27T08:47:55.635Z,6664.00
2018-04-27T08:48:55.655Z,7100.00
2018-04-27T08:49:55.694Z,6768.00
2018-04-27T08:50:55.698Z,6748.00
2018-04-27T08:51:55.725Z,6704.00
2018-04-27T08:52:55.744Z,6576.00
2018-04-27T08:53:55.769Z,6572.00
2018-04-27T08:54:55.792Z,6688.00
2018-04-27T08:55:55.814Z,6756.00
2018-04-27T08:56:55.833Z,6872.00
2018-04-27T08:57:55.857Z,6860.00
2018-04-27T08:58:55.878Z,6724.00
2018-04-27T08:59:55.904Z,6796.00
2018-04-27T09:00:55.930Z,6832.00
2018-04-27T09:01:55.949Z,6780.00
2018-04-27T09:02:55.975Z,6536.00
2018-04-27T09:03:55.992Z,6440.00
2018-04-27T09:04:56.013Z,6436.00
2018-04-27T09:05:56.040Z,6408.00
2018-04-27T09:06:56.062Z,6568.00
2018-04-27T09:07:56.089Z,6640.00
2018-04-27T09:08:56.104Z,6992.00
2018-04-27T09:09:56.127Z,6916.00
2018-04-27T09:10:56.154Z,6980.00
2018-04-27T09:11:56.177Z,6900.00
2018-04-27T09:12:56.199Z,6944.00
2018-04-27T09:13:56.225Z,6976.00
2018-04-27T09:14:56.237Z,7140.00
2018-04-27T09:15:56.263Z,7320.00
2018-04-27T09:16:56.284Z,6836.00
2018-04-27T09:17:56.308Z,7664.00
2018-04-27T09:18:56.332Z,8020.00
2018-04-27T09:19:56.359Z,8280.00
2018-04-27T09:20:56.376Z,8344.00
2018-04-27T09:21:56.402Z,8480.00
2018-04-27T09:22:56.423Z,8740.00
2018-04-27T09:23:56.451Z,9128.00
2018-04-27T09:24:56.467Z,9292.00
2018-04-27T09:25:56.496Z,9248.00
2018-04-27T09:26:56.553Z,9164.00
2018-04-27T09:27:56.537Z,9512.00
2018-04-27T09:28:56.566Z,8996.00
2018-04-27T09:29:56.585Z,8852.00
2018-04-27T09:30:56.613Z,8588.00
2018-04-27T09:31:56.627Z,8644.00
2018-04-27T09:32:56.654Z,9400.00
2018-04-27T09:33:56.682Z,10072.00
2018-04-27T09:34:56.708Z,11044.00
2018-04-27T09:35:56.731Z,11948.00
2018-04-27T09:36:56.749Z,12620.00
2018-04-27T09:37:56.767Z,12968.00
2018-04-27T09:38:56.793Z,13308.00
2018-04-27T09:39:56.815Z,13760.00
2018-04-27T09:40:56.915Z,13836.00
2018-04-27T09:41:56.861Z,13576.00
2018-04-27T09:42:56.887Z,13588.00
2018-04-27T09:43:56.912Z,13040.00
2018-04-27T09:44:56.932Z,12956.00
2018-04-27T09:45:56.956Z,12312.00
2018-04-27T09:46:56.981Z,10800.00
2018-04-27T09:47:57.001Z,10616.00
2018-04-27T09:48:57.026Z,11108.00
2018-04-27T09:49:57.052Z,12016.00
2018-04-27T09:50:57.074Z,13088.00
2018-04-27T09:51:57.103Z,12528.00
2018-04-27T09:52:57.125Z,12384.00
2018-04-27T09:53:57.146Z,11640.00
2018-04-27T09:54:57.176Z,11404.00
2018-04-27T09:55:57.190Z,10508.00
2018-04-27T09:56:57.218Z,9980.00
2018-04-27T09:57:57.241Z,9900.00
2018-04-27T09:58:57.267Z,9464.00
2018-04-27T09:59:57.293Z,9196.00
2018-04-27T10:00:57.315Z,8656.00
2018-04-27T10:01:57.343Z,8832.00
2018-04-27T10:02:57.361Z,9404.00
2018-04-27T10:03:57.380Z,10140.00
2018-04-27T10:04:57.408Z,10880.00
2018-04-27T10:05:57.432Z,11688.00
2018-04-27T10:06:57.463Z,12392.00
2018-04-27T10:07:57.481Z,13480.00
2018-04-27T10:08:57.501Z,13812.00
2018-04-27T10:09:57.528Z,13900.00
2018-04-27T10:10:57.559Z,13820.00
2018-04-27T10:11:57.573Z,13340.00
2018-04-27T10:12:57.605Z,12400.00
2018-04-27T10:13:57.623Z,12360.00
2018-04-27T10:14:57.660Z,12380.00
2018-04-27T10:15:57.675Z,12452.00
2018-04-27T10:16:57.700Z,12704.00
2018-04-27T10:17:57.718Z,11040.00
2018-04-27T10:18:57.743Z,10468.00
2018-04-27T10:19:57.769Z,10344.00
2018-04-27T10:20:57.795Z,10508.00
2018-04-27T10:21:57.827Z,10584.00
2018-04-27T10:22:57.840Z,10192.00
2018-04-27T10:23:57.871Z,9860.00
2018-04-27T10:24:57.892Z,9656.00
2018-04-27T10:25:57.914Z,9652.00
2018-04-27T10:26:57.941Z,9608.00
2018-04-27T10:27:57.969Z,9616.00
2018-04-27T10:28:57.999Z,9224.00
2018-04-27T10:29:58.010Z,8828.00
2018-04-27T10:30:58.154Z,8684.00
2018-04-27T10:31:58.061Z,8864.00
2018-04-27T10:32:58.084Z,9228.00
2018-04-27T10:33:58.112Z,9556.00
2018-04-27T10:34:58.134Z,9964.00
2018-04-27T10:35:58.159Z,10516.00
2018-04-27T10:36:58.185Z,10972.00
2018-04-27T10:37:58.207Z,11512.00
2018-04-27T10:38:58.250Z,12412.00
2018-04-27T10:39:58.264Z,13612.00
2018-04-27T10:40:58.283Z,15180.00
2018-04-27T10:41:58.322Z,16932.00
2018-04-27T10:42:58.353Z,19360.00
2018-04-27T10:43:58.358Z,23456.00
2018-04-27T10:44:58.381Z,24384.00
2018-04-27T10:45:58.414Z,24576.00
2018-04-27T10:46:58.431Z,24288.00
2018-04-27T10:47:58.457Z,24160.00
2018-04-27T10:48:58.478Z,25152.00
2018-04-27T10:49:58.512Z,26048.00
2018-04-27T10:50:58.528Z,27616.00
2018-04-27T10:51:58.560Z,16556.00
2018-04-27T10:52:58.585Z,21120.00
2018-04-27T10:53:58.609Z,16156.00
2018-04-27T10:54:58.634Z,16464.00
2018-04-27T10:55:58.663Z,22368.00
2018-04-27T10:56:58.683Z,16880.00
2018-04-27T10:57:58.715Z,15544.00
2018-04-27T10:58:58.731Z,14584.00
2018-04-27T10:59:58.830Z,13508.00
2018-04-27T11:00:58.786Z,13004.00
2018-04-27T11:01:58.818Z,12688.00
2018-04-27T11:02:58.842Z,12664.00
2018-04-27T11:03:58.869Z,13180.00
2018-04-27T11:04:58.893Z,13752.00
2018-04-27T11:05:58.917Z,14596.00
2018-04-27T11:06:58.940Z,15780.00
2018-04-27T11:07:58.971Z,30496.00
2018-04-27T11:08:59.000Z,48064.00
2018-04-27T11:09:59.024Z,49856.00
2018-04-27T11:10:59.156Z,51264.00
2018-04-27T11:11:59.079Z,51520.00
2018-04-27T11:12:59.103Z,47136.00
2018-04-27T11:13:59.129Z,47776.00
2018-04-27T11:14:59.160Z,21088.00
2018-04-27T11:15:59.197Z,29856.00
2018-04-27T11:16:59.328Z,49440.00
2018-04-27T11:17:59.258Z,21824.00
2018-04-27T11:18:59.273Z,21696.00
2018-04-27T11:19:59.308Z,20416.00
2018-04-27T11:20:59.334Z,16580.00
2018-04-27T11:21:59.357Z,14900.00
2018-04-27T11:22:59.394Z,13860.00
2018-04-27T11:23:59.417Z,13720.00
2018-04-27T11:24:59.448Z,14240.00
2018-04-27T11:25:59.476Z,14720.00
2018-04-27T11:26:59.506Z,15440.00
2018-04-27T11:27:59.537Z,16216.00
2018-04-27T11:28:59.573Z,16456.00
2018-04-27T11:29:59.591Z,16656.00
2018-04-27T11:30:59.623Z,17088.00
2018-04-27T11:31:59.651Z,17332.00
2018-04-27T11:32:59.681Z,17888.00
2018-04-27T11:33:59.707Z,17632.00
2018-04-27T11:34:59.743Z,17728.00
2018-04-27T11:35:59.768Z,18400.00
2018-04-27T11:36:59.796Z,18112.00
2018-04-27T11:37:59.827Z,35232.00
2018-04-27T11:38:59.845Z,19424.00
2018-04-27T11:39:59.881Z,20416.00
2018-04-27T11:40:59.903Z,30336.00
2018-04-27T11:41:59.932Z,48064.00
2018-04-27T11:42:59.970Z,50304.00
2018-04-27T11:43:59.986Z,23808.00
2018-04-27T11:45:00.020Z,43456.00
2018-04-27T11:46:00.041Z,21568.00
2018-04-27T11:47:00.076Z,39648.00
2018-04-27T11:48:00.104Z,20896.00
2018-04-27T11:49:00.127Z,20544.00
2018-04-27T11:50:00.160Z,25056.00
2018-04-27T11:51:00.187Z,27904.00
2018-04-27T11:52:00.220Z,19200.00
2018-04-27T11:53:00.260Z,18880.00
2018-04-27T11:54:00.274Z,19104.00
2018-04-27T11:55:00.308Z,19680.00
2018-04-27T11:56:00.335Z,20800.00
2018-04-27T11:57:00.365Z,40800.00
2018-04-27T11:58:00.390Z,43360.00
2018-04-27T11:59:00.420Z,41824.00
2018-04-27T12:00:00.456Z,33408.00
2018-04-27T12:01:00.479Z,28704.00
2018-04-27T12:02:00.522Z,27008.00
2018-04-27T12:03:00.534Z,22528.00
2018-04-27T12:04:00.565Z,16320.00
2018-04-27T12:05:00.597Z,15040.00
2018-04-27T12:06:00.624Z,13900.00
2018-04-27T12:07:00.659Z,13112.00
2018-04-27T12:08:00.688Z,12712.00
2018-04-27T12:09:00.718Z,12684.00
2018-04-27T12:10:00.752Z,12756.00
2018-04-27T12:11:00.773Z,12772.00
2018-04-27T12:12:00.801Z,12588.00
2018-04-27T12:13:00.825Z,12392.00
2018-04-27T12:14:00.856Z,12416.00
2018-04-27T12:15:00.888Z,12728.00
2018-04-27T12:16:00.919Z,12840.00
2018-04-27T12:17:00.939Z,12940.00
2018-04-27T12:18:00.981Z,13188.00
2018-04-27T12:19:00.998Z,13744.00
2018-04-27T12:20:01.026Z,14220.00
2018-04-27T12:21:01.064Z,14348.00
2018-04-27T12:22:01.092Z,14148.00
2018-04-27T12:23:01.115Z,13804.00